地図

経路データ

SID SEASON NUMBER BASIN SUBBASIN NAME ISO_TIME NATURE LAT LON WMO_WIND WMO_PRES WMO_AGENCY TRACK_TYPE DIST2LAND LANDFALL IFLAG USA_AGENCY USA_ATCF_ID USA_LAT USA_LON USA_RECORD USA_STATUS USA_WIND USA_PRES USA_SSHS USA_R34_NE USA_R34_SE USA_R34_SW USA_R34_NW USA_R50_NE USA_R50_SE USA_R50_SW USA_R50_NW USA_R64_NE USA_R64_SE USA_R64_SW USA_R64_NW USA_POCI USA_ROCI USA_RMW USA_EYE TOKYO_LAT TOKYO_LON TOKYO_GRADE TOKYO_WIND TOKYO_PRES TOKYO_R50_DIR TOKYO_R50_LONG TOKYO_R50_SHORT TOKYO_R30_DIR TOKYO_R30_LONG TOKYO_R30_SHORT TOKYO_LAND CMA_LAT CMA_LON CMA_CAT CMA_WIND CMA_PRES HKO_LAT HKO_LON HKO_CAT HKO_WIND HKO_PRES NEWDELHI_LAT NEWDELHI_LON NEWDELHI_GRADE NEWDELHI_WIND NEWDELHI_PRES NEWDELHI_CI NEWDELHI_DP NEWDELHI_POCI REUNION_LAT REUNION_LON REUNION_TYPE REUNION_WIND REUNION_PRES REUNION_TNUM REUNION_CI REUNION_RMW REUNION_R34_NE REUNION_R34_SE REUNION_R34_SW REUNION_R34_NW REUNION_R50_NE REUNION_R50_SE REUNION_R50_SW REUNION_R50_NW REUNION_R64_NE REUNION_R64_SE REUNION_R64_SW REUNION_R64_NW BOM_LAT BOM_LON BOM_TYPE BOM_WIND BOM_PRES BOM_TNUM BOM_CI BOM_RMW BOM_R34_NE BOM_R34_SE BOM_R34_SW BOM_R34_NW BOM_R50_NE BOM_R50_SE BOM_R50_SW BOM_R50_NW BOM_R64_NE BOM_R64_SE BOM_R64_SW BOM_R64_NW BOM_ROCI BOM_POCI BOM_EYE BOM_POS_METHOD BOM_PRES_METHOD NADI_LAT NADI_LON NADI_CAT NADI_WIND NADI_PRES WELLINGTON_LAT WELLINGTON_LON WELLINGTON_WIND WELLINGTON_PRES DS824_LAT DS824_LON DS824_STAGE DS824_WIND DS824_PRES TD9636_LAT TD9636_LON TD9636_STAGE TD9636_WIND TD9636_PRES TD9635_LAT TD9635_LON TD9635_WIND TD9635_PRES TD9635_ROCI NEUMANN_LAT NEUMANN_LON NEUMANN_CLASS NEUMANN_WIND NEUMANN_PRES MLC_LAT MLC_LON MLC_CLASS MLC_WIND MLC_PRES USA_GUST BOM_GUST BOM_GUST_PER REUNION_GUST REUNION_GUST_PER USA_SEAHGT USA_SEARAD_NE USA_SEARAD_SE USA_SEARAD_SW USA_SEARAD_NW STORM_SPEED STORM_DIR
1969262N15238 1969 82 EP MM HEATHER 1969-09-19 00:00:00 TS 14.5000 -122.400 45 hurdat_epa main 1568 1568 O________OO___ hurdat_epa EP081969 14.5000 -122.400 TS 45 0 14.5000 -122.400 TC 45 14.5000 -122.400 2 7 278
1969262N15238 1969 82 EP MM HEATHER 1969-09-19 03:00:00 TS 14.5494 -122.753 main 1597 1589 P________PP___ EP081969 14.5527 -122.765 TS 45 0 14.5527 -122.765 TC 45 14.5361 -122.705 2 7 278
1969262N15238 1969 82 EP MM HEATHER 1969-09-19 06:00:00 TS 14.5955 -123.084 45 hurdat_epa main 1611 1611 O________OP___ hurdat_epa EP081969 14.6000 -123.100 TS 45 0 14.6000 -123.100 TC 45 14.5776 -123.018 2 6 278
1969262N15238 1969 82 EP MM HEATHER 1969-09-19 09:00:00 TS 14.6400 -123.383 main 1634 1633 P________PP___ EP081969 14.6424 -123.393 TS 45 0 14.6424 -123.393 TC 45 14.6304 -123.347 2 6 280
1969262N15238 1969 82 EP MM HEATHER 1969-09-19 12:00:00 TS 14.7000 -123.700 45 hurdat_epa main 1648 1648 O________OO___ hurdat_epa EP081969 14.7000 -123.700 TS 45 0 14.7000 -123.700 TC 45 14.7000 -123.700 2 7 283
1969262N15238 1969 82 EP MM HEATHER 1969-09-19 15:00:00 TS 14.7919 -124.084 main 1671 1671 P________PP___ EP081969 14.7925 -124.085 TS 50 0 14.7925 -124.085 TC 50 14.7897 -124.082 2 8 284
1969262N15238 1969 82 EP MM HEATHER 1969-09-19 18:00:00 TS 14.8985 -124.497 55 hurdat_epa main 1695 1695 O________OP___ hurdat_epa EP081969 14.9000 -124.500 TS 55 0 14.9000 -124.500 TC 55 14.8925 -124.485 2 8 285
1969262N15238 1969 82 EP MM HEATHER 1969-09-19 21:00:00 TS 15.0058 -124.899 main 1719 1719 P________PP___ EP081969 15.0074 -124.900 TS 50 0 15.0074 -124.900 TC 50 14.9991 -124.895 2 8 285
1969262N15238 1969 82 EP MM HEATHER 1969-09-20 00:00:00 TS 15.1000 -125.300 45 hurdat_epa main 1744 1744 O________OO___ hurdat_epa EP081969 15.1000 -125.300 TS 45 0 15.1000 -125.300 TC 45 15.1000 -125.300 2 8 281
1969262N15238 1969 82 EP MM HEATHER 1969-09-20 03:00:00 TS 15.1523 -125.703 main 1770 1770 P________PP___ EP081969 15.1500 -125.708 TS 45 0 15.1500 -125.708 TC 45 15.1616 -125.683 2 8 278
1969262N15238 1969 82 EP MM HEATHER 1969-09-20 06:00:00 TS 15.2039 -126.092 45 hurdat_epa main 1803 1803 O________OP___ hurdat_epa EP081969 15.2000 -126.100 TS 45 0 15.2000 -126.100 TC 45 15.2197 -126.058 2 7 280
1969262N15238 1969 82 EP MM HEATHER 1969-09-20 09:00:00 TS 15.2805 -126.446 main 1817 1817 P________PP___ EP081969 15.2774 -126.450 TS 45 0 15.2774 -126.450 TC 45 15.2929 -126.430 2 7 286
1969262N15238 1969 82 EP MM HEATHER 1969-09-20 12:00:00 TS 15.4000 -126.800 45 hurdat_epa main 1835 1834 O________OO___ hurdat_epa EP081969 15.4000 -126.800 TS 45 0 15.4000 -126.800 TC 45 15.4000 -126.800 2 8 293
1969262N15238 1969 82 EP MM HEATHER 1969-09-20 15:00:00 TS 15.5841 -127.202 main 1846 1845 P________PP___ EP081969 15.5850 -127.200 TS 45 0 15.5850 -127.200 TC 45 15.5805 -127.211 2 9 297
1969262N15238 1969 82 EP MM HEATHER 1969-09-20 18:00:00 TS 15.7986 -127.603 45 hurdat_epa main 1858 1857 O________OP___ hurdat_epa EP081969 15.8000 -127.600 TS 45 0 15.8000 -127.600 TC 45 15.7928 -127.617 2 9 300
1969262N15238 1969 82 EP MM HEATHER 1969-09-20 21:00:00 TS 16.0138 -127.988 main 1870 1869 P________PP___ EP081969 16.0150 -127.987 TS 45 0 16.0150 -127.987 TC 45 16.0087 -127.989 2 8 301
1969262N15238 1969 82 EP MM HEATHER 1969-09-21 00:00:00 TS 16.2000 -128.300 45 hurdat_epa main 1876 1876 O________OO___ hurdat_epa EP081969 16.2000 -128.300 TS 45 0 16.2000 -128.300 TC 45 16.2000 -128.300 2 6 302
1969262N15238 1969 82 EP MM HEATHER 1969-09-21 03:00:00 TS 16.3168 -128.486 main 1883 1876 P________PP___ EP081969 16.3149 -128.480 TS 45 0 16.3149 -128.480 TC 45 16.3242 -128.507 2 4 304
1969262N15238 1969 82 EP MM HEATHER 1969-09-21 06:00:00 TS 16.4044 -128.611 45 hurdat_epa main 1883 1883 O________OP___ hurdat_epa EP081969 16.4000 -128.600 TS 45 0 16.4000 -128.600 TC 45 16.4219 -128.653 2 3 306
1969262N15238 1969 82 EP MM HEATHER 1969-09-21 09:00:00 TS 16.4957 -128.743 main 1883 1883 P________PP___ EP081969 16.4925 -128.735 TS 45 0 16.4925 -128.735 TC 45 16.5087 -128.773 2 3 305
1969262N15238 1969 82 EP MM HEATHER 1969-09-21 12:00:00 TS 16.6000 -128.900 45 hurdat_epa main 1891 1891 O________OO___ hurdat_epa EP081969 16.6000 -128.900 TS 45 0 16.6000 -128.900 TC 45 16.6000 -128.900 2 5 303
1969262N15238 1969 82 EP MM HEATHER 1969-09-21 15:00:00 TS 16.7461 -129.141 main 1899 1899 P________PP___ EP081969 16.7501 -129.150 TS 45 0 16.7501 -129.150 TC 45 16.7301 -129.106 2 6 302
1969262N15238 1969 82 EP MM HEATHER 1969-09-21 18:00:00 TS 16.8930 -129.384 45 hurdat_epa main 1907 1907 O________OP___ hurdat_epa EP081969 16.9000 -129.400 TS 45 0 16.9000 -129.400 TC 45 16.8652 -129.322 2 5 303
1969262N15238 1969 82 EP MM HEATHER 1969-09-21 21:00:00 TS 17.0105 -129.564 main 1916 1908 P________PP___ EP081969 17.0150 -129.573 TS 35 0 17.0150 -129.573 TC 35 16.9926 -129.528 2 4 305
1969262N15238 1969 82 EP MM HEATHER 1969-09-22 00:00:00 TS 17.1000 -129.700 25 hurdat_epa main 1916 1916 O________OO___ hurdat_epa EP081969 17.1000 -129.700 TD 25 -1 17.1000 -129.700 TC 25 17.1000 -129.700 2 3 302
1969262N15238 1969 82 EP MM HEATHER 1969-09-22 03:00:00 TS 17.1595 -129.814 main 1917 1917 P________PP___ EP081969 17.1575 -129.815 TD 25 -1 17.1575 -129.815 TC 25 17.1674 -129.811 2 2 298
1969262N15238 1969 82 EP MM HEATHER 1969-09-22 06:00:00 TS 17.2030 -129.898 25 hurdat_epa main 1925 1925 O________OP___ hurdat_epa EP081969 17.2000 -129.900 TD 25 -1 17.2000 -129.900 TC 25 17.2149 -129.888 2 2 304
1969262N15238 1969 82 EP MM HEATHER 1969-09-22 09:00:00 TS 17.2510 -129.955 main 1926 1926 P________PP___ EP081969 17.2500 -129.958 TD 25 -1 17.2500 -129.958 TC 25 17.2549 -129.945 2 1 315
1969262N15238 1969 82 EP MM HEATHER 1969-09-22 12:00:00 TS 17.3000 -130.000 25 hurdat_epa main 1926 1926 O________OO___ hurdat_epa EP081969 17.3000 -130.000 TD 25 -1 17.3000 -130.000 TC 25 17.3000 -130.000 1 1 316
1969262N15238 1969 82 EP MM HEATHER 1969-09-22 15:00:00 TS 17.3451 -130.046 main 1926 1926 P________PP___ EP081969 17.3425 -130.043 TD 25 -1 17.3425 -130.043 TC 25 17.3556 -130.059 1 1 317
1969262N15238 1969 82 EP MM HEATHER 1969-09-22 18:00:00 TS 17.4040 -130.104 25 hurdat_epa main 1927 1927 O________OP___ hurdat_epa EP081969 17.4000 -130.100 TD 25 -1 17.4000 -130.100 TC 25 17.4199 -130.120 1 2 316
1969262N15238 1969 82 EP MM HEATHER 1969-09-22 21:00:00 TS 17.4879 -130.187 main 1928 1928 P________PP___ EP081969 17.4850 -130.185 TD 25 -1 17.4850 -130.185 TC 25 17.4993 -130.196 1 3 316
1969262N15238 1969 82 EP MM HEATHER 1969-09-23 00:00:00 TS 17.6000 -130.300 25 hurdat_epa main 1930 1930 O________OO___ hurdat_epa EP081969 17.6000 -130.300 TD 25 -1 17.6000 -130.300 TC 25 17.6000 -130.300 1 3 316
1969262N15238 1969 82 EP MM HEATHER 1969-09-23 03:00:00 TS 17.7356 -130.435 main 1931 1931 P________PP___ EP081969 17.7425 -130.435 TD 25 -1 17.7425 -130.435 TC 25 17.7081 -130.434 1 4 315
1969262N15238 1969 82 EP MM HEATHER 1969-09-23 06:00:00 TS 17.8880 -130.600 25 hurdat_epa main 1934 1934 O________OP___ hurdat_epa EP081969 17.9000 -130.600 TD 25 -1 17.9000 -130.600 TC 25 17.8399 -130.598 1 4 311
1969262N15238 1969 82 EP MM HEATHER 1969-09-23 09:00:00 TS 18.0223 -130.786 main 1944 1938 P________PP___ EP081969 18.0275 -130.785 TD 25 -1 18.0275 -130.785 TC 25 18.0018 -130.787 1 5 309
1969262N15238 1969 82 EP MM HEATHER 1969-09-23 12:00:00 TS 18.2000 -131.000 25 hurdat_epa main 1948 1944 O________OO___ hurdat_epa EP081969 18.2000 -131.000 TD 25 -1 18.2000 -131.000 TC 25 18.2000 -131.000 1 6 317
1969262N15238 1969 82 EP MM HEATHER 1969-09-23 15:00:00 TS 18.4791 -131.241 main 1946 1946 P________PP___ EP081969 18.4850 -131.242 TD 25 -1 18.4850 -131.242 TC 25 18.4554 -131.236 1 8 321
1969262N15238 1969 82 EP MM HEATHER 1969-09-23 18:00:00 TS 18.7885 -131.498 25 hurdat_epa main 1953 1953 O________OP___ hurdat_epa EP081969 18.8000 -131.500 TD 25 -1 18.8000 -131.500 TC 25 18.7426 -131.492 1 8 320
1969262N15238 1969 82 EP MM HEATHER 1969-09-23 21:00:00 TS 19.0587 -131.756 main 1961 1961 P________PP___ EP081969 19.0650 -131.758 TD 25 -1 19.0650 -131.758 TC 25 19.0335 -131.752 1 7 317
1969262N15238 1969 82 EP MM HEATHER 1969-09-24 00:00:00 TS 19.3000 -132.000 25 hurdat_epa main 1967 1961 O________OO___ hurdat_epa EP081969 19.3000 -132.000 TD 25 -1 19.3000 -132.000 TC 25 19.3000 -132.000 1 6 317
1969262N15238 1969 82 EP MM HEATHER 1969-09-24 03:00:00 TS 19.5127 -132.207 main 1973 1973 P________PP___ EP081969 19.5149 -132.208 TD 25 -1 19.5149 -132.208 TC 25 19.5035 -132.203 1 5 317
1969262N15238 1969 82 EP MM HEATHER 1969-09-24 06:00:00 TS 19.6959 -132.399 25 hurdat_epa main 1980 1980 O________OP___ hurdat_epa EP081969 19.7000 -132.400 TD 25 -1 19.7000 -132.400 TC 25 19.6796 -132.393 1 5 313
1969262N15238 1969 82 EP MM HEATHER 1969-09-24 09:00:00 TS 19.8482 -132.592 main 1993 1987 P________PP___ EP081969 19.8500 -132.593 TD 25 -1 19.8500 -132.593 TC 25 19.8410 -132.587 1 5 309
1969262N15238 1969 82 EP MM HEATHER 1969-09-24 12:00:00 TS 20.0000 -132.800 25 hurdat_epa main 2000 2000 O________OO___ hurdat_epa EP081969 20.0000 -132.800 TD 25 -1 20.0000 -132.800 TC 25 20.0000 -132.800 1 5 310
1969262N15238 1969 82 EP MM HEATHER 1969-09-24 15:00:00 TS 20.1973 -133.031 main 2005 1999 P________PP___ EP081969 20.2000 -133.035 TD 25 -1 20.2000 -133.035 TC 25 20.1867 -133.017 1 6 311
1969262N15238 1969 82 EP MM HEATHER 1969-09-24 18:00:00 TS 20.3943 -133.292 25 hurdat_epa main 2005 2002 O________OP___ hurdat_epa EP081969 20.4000 -133.300 TD 25 -1 20.4000 -133.300 TC 25 20.3717 -133.260 1 6 306
1969262N15238 1969 82 EP MM HEATHER 1969-09-24 21:00:00 TS 20.5550 -133.560 main 2005 2005 P________PP___ EP081969 20.5573 -133.563 TD 25 -1 20.5573 -133.563 TC 25 20.5459 -133.548 1 6 298
1969262N15238 1969 82 EP MM HEATHER 1969-09-25 00:00:00 TS 20.7000 -133.900 25 hurdat_epa main 2016 2013 O________OO___ hurdat_epa EP081969 20.7000 -133.900 TD 25 -1 20.7000 -133.900 TC 25 20.7000 -133.900 1 8 292
1969262N15238 1969 82 EP MM HEATHER 1969-09-25 03:00:00 TS 20.8575 -134.361 main 2030 2030 P________PP___ EP081969 20.8651 -134.370 TD 25 -1 20.8651 -134.370 TC 25 20.8274 -134.328 1 10 287
1969262N15238 1969 82 EP MM HEATHER 1969-09-25 06:00:00 TS 20.9864 -134.883 25 hurdat_epa main 2055 2029 O________OP___ hurdat_epa EP081969 21.0000 -134.900 TD 25 -1 21.0000 -134.900 TC 25 20.9319 -134.817 1 10 282
1969262N15238 1969 82 EP MM HEATHER 1969-09-25 09:00:00 TS 21.0602 -135.398 main 2029 1977 P________PP___ EP081969 21.0702 -135.410 TD 25 -1 21.0702 -135.410 TC 25 21.0205 -135.348 1 10 277
1969262N15238 1969 82 EP MM HEATHER 1969-09-25 12:00:00 TS 21.1000 -135.900 25 hurdat_epa main 1977 O________OO___ hurdat_epa EP081969 21.1000 -135.900 TD 25 -1 21.1000 -135.900 TC 25 21.1000 -135.900 1 9 275

IBTrACS Databaseについて

本データベースは、米国NOAAが公開する1842年以降の世界の熱帯低気圧のベストトラックデータアーカイブInternational Best Track Archive for Climate Stewardship (IBTrACS)を、ウェブで閲覧しやすい形式に変換したものです。

最終更新日:2021-11-26